Hlavní strana
METAR-TAF:

METAR-TAF

Letiště :

Cut Bank, Montana, Spojené státy americké

zeměpisná šířka: 48-36-30N, zeměpisná délka: 112-22-34W, výška: 1175 m

Aktuální stav počasí

Zpráva byla vytvořena před 42 minutami, v 17:56 UTC
Jihovýchodní vítr 6 kt
Teplota 22°C
Vlhkost vzduchu 35%
Tlak 1013 hPa
Viditelnost: 16.1 km
Jasno

METAR: KCTB 231756Z AUTO 13006KT 10SM CLR 22/06 A2991 RMK AO2 SLP105 T02220061 10222 20067 58009

Čas: 12:38 (18:38 UTC)

Předpověď počasí

Zpráva byla vytvořena před 1 hodinou a 18 minutami, v 17:20 UTC
Předpověď platná od 23 v 18 UTC do 24 v 18 UTC
vítr z různých směrů 5 kt
Viditelnost: 10 km
Polojasno ve výšce 8000 ft
Polojasno ve výšce 20000 ft
Od 24 v 0200 UTC
Východojihovýchodní vítr 7 kt
Viditelnost: 10 km
Polojasno ve výšce 5000 ft
Polojasno ve výšce 11000 ft

TAF: KCTB 231720Z 2318/2418 VRB05KT P6SM SCT080 SCT200 FM240200 12007KT P6SM SCT050 SCT110

Stav a předpovědi počasí z více než 4 000 letišť (zprávy METAR a TAF).

Červené a žluté tečky na mapě představují dostupné meteorologické stanice.

Když kurzor umístíte na tečku, zobrazí se název stanice.

Pak kliknutím zobrazíte stav a předpověď počasí.

Chcete-li změnit mapu, kliknutím na zelené tlačítko se znaménkem +mapu přiblížíte, kliknutím na zelené tlačítko se znaménkem – mapu oddálíte a kliknutím na zelené šipky přejdete na sousední mapy.


METAR-TAF: